Time;durP1;ratioP1;P1;durP2;ratioP2;P2;SDS_P1;SDS_P2;PMS_P1;PMS_P2;Temp;Humidity;BMP_temperature;BMP_pressure;BME280_temperature;BME280_humidity;BME280_pressure;Samples;Min_cycle;Max_cycle;Signal;HPM_P1;HPM_P2
2024/01/20 00:01:15;;;;;;;10.00;6.95;;;;;;;;;;5072791;28;20072;-68
2024/01/20 00:03:41;;;;;;;10.05;6.20;;;;;;;;;;5072356;28;20041;-67
2024/01/20 00:06:07;;;;;;;9.02;5.70;;;;;;;;;;5073169;28;20048;-67
2024/01/20 00:08:32;;;;;;;10.60;5.97;;;17.20;74.70;;;;;;5076891;28;20055;-67
2024/01/20 00:10:58;;;;;;;9.48;5.60;;;17.30;74.80;;;;;;5060447;28;20151;-67
2024/01/20 00:13:24;;;;;;;8.48;5.40;;;;;;;;;;5076765;28;20112;-67
2024/01/20 00:15:50;;;;;;;8.40;4.88;;;;;;;;;;5075936;28;20097;-68
2024/01/20 00:18:16;;;;;;;7.18;4.95;;;;;;;;;;5057675;28;20106;-67
2024/01/20 00:20:43;;;;;;;8.05;4.43;;;;;;;;;;5073308;28;20045;-68
2024/01/20 00:23:09;;;;;;;7.93;4.50;;;;;;;;;;5075070;28;21210;-67
2024/01/20 00:25:35;;;;;;;10.40;4.07;;;;;;;;;;5070669;28;20405;-67
2024/01/20 00:28:03;;;;;;;6.38;4.00;;;;;;;;;;5056976;28;20070;-67
2024/01/20 00:30:29;;;;;;;6.78;4.05;;;;;;;;;;5057022;28;20083;-67
2024/01/20 00:32:55;;;;;;;6.38;4.00;;;;;;;;;;5050024;28;20080;-67
2024/01/20 00:35:21;;;;;;;7.70;3.95;;;;;;;;;;5066709;28;20048;-67
2024/01/20 00:37:47;;;;;;;8.23;3.75;;;17.10;75.10;;;;;;5060317;28;20049;-67
2024/01/20 00:40:14;;;;;;;7.25;3.78;;;17.00;75.00;;;;;;5038790;28;20059;-67
2024/01/20 00:42:40;;;;;;;7.70;3.78;;;;;;;;;;5060057;28;20053;-67
2024/01/20 00:45:07;;;;;;;8.73;4.15;;;;;;;;;;5044584;28;20044;-67
2024/01/20 00:47:33;;;;;;;6.20;3.25;;;16.80;75.10;;;;;;5062455;28;20375;-68
2024/01/20 00:49:59;;;;;;;8.07;3.92;;;;;;;;;;5056378;28;20109;-68
2024/01/20 00:52:26;;;;;;;7.43;3.50;;;;;;;;;;5069906;28;20048;-67
2024/01/20 00:54:52;;;;;;;7.38;3.47;;;;;;;;;;5056579;28;20792;-68
2024/01/20 00:57:18;;;;;;;5.72;3.10;;;16.90;75.10;;;;;;5057829;28;20047;-67
2024/01/20 00:59:45;;;;;;;6.90;3.30;;;17.00;75.10;;;;;;5060355;28;20124;-67
2024/01/20 01:02:11;;;;;;;7.10;3.50;;;;;;;;;;5069646;28;20106;-67
2024/01/20 01:04:37;;;;;;;7.70;3.17;;;;;;;;;;5066699;28;20056;-67
2024/01/20 01:07:03;;;;;;;5.97;3.10;;;16.90;74.20;;;;;;5073447;28;20052;-67
2024/01/20 01:09:29;;;;;;;8.55;3.30;;;16.80;75.00;;;;;;5077646;28;20044;-67
2024/01/20 01:11:55;;;;;;;5.97;2.90;;;16.80;75.10;;;;;;5092800;28;20039;-67
2024/01/20 01:14:20;;;;;;;6.75;3.40;;;16.90;75.30;;;;;;5075311;28;20051;-67
2024/01/20 01:16:47;;;;;;;5.75;3.50;;;;;;;;;;5074737;28;20052;-67
2024/01/20 01:19:13;;;;;;;6.78;3.20;;;;;;;;;;5075784;28;20496;-67
2024/01/20 01:21:39;;;;;;;8.02;3.22;;;;;;;;;;5075803;28;20086;-67
2024/01/20 01:24:06;;;;;;;8.20;3.50;;;16.60;75.50;;;;;;5073622;28;20056;-67
2024/01/20 01:26:32;;;;;;;6.28;3.05;;;;;;;;;;5060701;28;20091;-67
2024/01/20 01:28:58;;;;;;;7.95;3.78;;;;;;;;;;5072244;28;20060;-68
2024/01/20 01:31:24;;;;;;;6.22;3.38;;;;;;;;;;5057999;28;20039;-67
2024/01/20 01:33:49;;;;;;;5.65;3.25;;;16.40;75.50;;;;;;5072263;28;20125;-67
2024/01/20 01:36:15;;;;;;;7.03;3.17;;;;;;;;;;5044546;28;20094;-67
2024/01/20 01:38:41;;;;;;;6.45;3.40;;;16.40;75.80;;;;;;5073797;28;20052;-67
2024/01/20 01:41:07;;;;;;;6.68;3.08;;;;;;;;;;5074353;28;20478;-67
2024/01/20 01:43:33;;;;;;;7.63;3.38;;;;;;;;;;5076848;28;20082;-68
2024/01/20 01:45:59;;;;;;;8.20;3.60;;;16.20;73.30;;;;;;5070925;28;20503;-67
2024/01/20 01:48:25;;;;;;;8.40;3.60;;;;;;;;;;5074846;28;20134;-67
2024/01/20 01:50:51;;;;;;;7.63;3.50;;;;;;;;;;5074886;28;20044;-67
2024/01/20 01:53:17;;;;;;;8.43;3.50;;;15.90;76.20;;;;;;5073652;28;20430;-67
2024/01/20 01:55:43;;;;;;;7.68;3.30;;;;;;;;;;5073343;28;20127;-67
2024/01/20 01:58:09;;;;;;;6.57;3.47;;;;;;;;;;5055562;28;20056;-67
2024/01/20 02:00:35;;;;;;;6.75;3.47;;;15.60;76.70;;;;;;5063453;28;20040;-67
2024/01/20 02:03:01;;;;;;;7.30;3.70;;;;;;;;;;5093052;28;20109;-67
2024/01/20 02:05:27;;;;;;;8.10;3.50;;;;;;;;;;5072480;28;20036;-68
2024/01/20 02:07:54;;;;;;;6.47;3.60;;;;;;;;;;5054476;28;20049;-67
2024/01/20 02:10:21;;;;;;;6.72;3.75;;;;;;;;;;5055655;28;20136;-68
2024/01/20 02:12:47;;;;;;;6.40;3.58;;;;;;;;;;5072472;28;20484;-67
2024/01/20 02:15:12;;;;;;;8.15;3.88;;;15.10;77.40;;;;;;5055060;28;20036;-68
2024/01/20 02:17:54;;;;;;;6.65;3.70;;;;;;;;;;5053337;28;20509;-68
2024/01/20 02:20:20;;;;;;;7.28;3.78;;;;;;;;;;5068271;28;20447;-67
2024/01/20 02:22:46;;;;;;;7.75;3.63;;;;;;;;;;5053981;28;20097;-67
2024/01/20 02:25:12;;;;;;;7.90;4.05;;;14.90;78.10;;;;;;5070931;28;20059;-67
2024/01/20 02:27:38;;;;;;;8.02;4.20;;;14.80;78.20;;;;;;5073334;28;20477;-68
2024/01/20 02:30:04;;;;;;;7.57;4.30;;;14.70;78.30;;;;;;5074527;28;20040;-68
2024/01/20 02:32:30;;;;;;;8.52;4.43;;;;;;;;;;5070397;28;20057;-68
2024/01/20 02:34:56;;;;;;;7.47;3.92;;;14.50;78.40;;;;;;5046716;28;20052;-68
2024/01/20 02:37:22;;;;;;;8.25;4.32;;;;;;;;;;5060229;28;20113;-67
2024/01/20 02:39:48;;;;;;;8.20;4.22;;;14.40;78.60;;;;;;5072487;28;20092;-67
2024/01/20 02:42:14;;;;;;;7.63;4.43;;;;;;;;;;5070071;28;20044;-68
2024/01/20 02:44:40;;;;;;;8.35;3.83;;;;;;;;;;5057353;28;20044;-67
2024/01/20 02:47:06;;;;;;;7.75;4.38;;;;;;;;;;5072314;28;20036;-67
2024/01/20 02:49:32;;;;;;;7.25;4.10;;;;;;;;;;5047706;28;20079;-68
2024/01/20 02:51:58;;;;;;;8.70;4.40;;;;;;;;;;5057481;28;20404;-67
2024/01/20 02:54:24;;;;;;;7.50;4.95;;;;;;;;;;5073800;28;20046;-67
2024/01/20 02:56:50;;;;;;;9.05;4.80;;;;;;;;;;5072309;28;20044;-67
2024/01/20 02:59:16;;;;;;;9.52;5.15;;;;;;;;;;5073889;28;20458;-67
2024/01/20 03:01:42;;;;;;;7.25;4.88;;;;;;;;;;5067985;28;20463;-67
2024/01/20 03:04:08;;;;;;;8.38;4.70;;;;;;;;;;5057871;28;20124;-67
2024/01/20 03:06:35;;;;;;;10.38;5.20;;;;;;;;;;5055789;28;20041;-67
2024/01/20 03:09:01;;;;;;;8.15;4.47;;;;;;;;;;5083092;28;20035;-67
2024/01/20 03:11:27;;;;;;;8.55;4.88;;;;;;;;;;5091527;28;20052;-67
2024/01/20 03:13:53;;;;;;;8.15;5.40;;;;;;;;;;5090413;28;20044;-68
2024/01/20 03:16:19;;;;;;;7.63;5.18;;;;;;;;;;5075461;28;20089;-67
2024/01/20 03:18:45;;;;;;;8.75;5.68;;;;;;;;;;5054408;28;20428;-68
2024/01/20 03:21:11;;;;;;;9.57;5.55;;;;;;;;;;5069701;28;20056;-68
2024/01/20 03:23:37;;;;;;;8.95;6.00;;;;;;;;;;5062496;28;20051;-68
2024/01/20 03:26:10;;;;;;;7.82;5.70;;;;;;;;;;5085390;28;20452;-67
2024/01/20 03:28:38;;;;;;;9.75;5.72;;;13.70;80.00;;;;;;5065574;28;20413;-67
2024/01/20 03:31:03;;;;;;;8.80;6.15;;;13.60;77.50;;;;;;5073530;28;20052;-67
2024/01/20 03:33:29;;;;;;;9.80;6.15;;;13.60;80.10;;;;;;5061575;28;20498;-67
2024/01/20 03:35:55;;;;;;;10.40;5.75;;;;;;;;;;5081709;28;20051;-67
2024/01/20 03:38:21;;;;;;;9.32;5.55;;;13.60;80.10;;;;;;5091368;28;20043;-67
2024/01/20 03:40:47;;;;;;;10.20;7.03;;;;;;;;;;5070834;28;20057;-67
2024/01/20 03:43:13;;;;;;;10.27;6.85;;;;;;;;;;5075282;28;20150;-67
2024/01/20 03:45:42;;;;;;;10.65;6.68;;;13.50;79.30;;;;;;5070894;28;20140;-67
2024/01/20 03:48:08;;;;;;;8.60;6.22;;;;;;;;;;5069722;28;20044;-67
2024/01/20 03:50:34;;;;;;;10.43;6.97;;;13.30;80.30;;;;;;5062336;28;20600;-67
2024/01/20 03:53:00;;;;;;;10.57;6.97;;;13.30;80.30;;;;;;5060620;28;20048;-67
2024/01/20 03:55:26;;;;;;;10.25;7.30;;;;;;;;;;5069812;28;20165;-67
2024/01/20 03:57:53;;;;;;;11.57;7.57;;;;;;;;;;5087318;28;20059;-67
2024/01/20 04:00:19;;;;;;;9.95;7.43;;;;;;;;;;5075206;28;20440;-67
2024/01/20 04:02:44;;;;;;;10.85;7.90;;;13.20;80.50;;;;;;5072961;28;20048;-67
2024/01/20 04:05:10;;;;;;;11.35;7.72;;;;;;;;;;5074402;28;20127;-67
2024/01/20 04:07:37;;;;;;;10.98;8.00;;;;;;;;;;5076319;28;20130;-67
2024/01/20 04:10:03;;;;;;;10.23;7.63;;;13.30;80.60;;;;;;5059605;28;20060;-67
2024/01/20 04:12:29;;;;;;;11.27;8.10;;;;;;;;;;5076954;28;20195;-67
2024/01/20 04:14:55;;;;;;;10.88;8.10;;;;;;;;;;5076643;28;20055;-67
2024/01/20 04:17:22;;;;;;;12.00;8.18;;;;;;;;;;5066758;28;20058;-67
2024/01/20 04:19:48;;;;;;;10.85;8.13;;;;;;;;;;5094284;28;20043;-67
2024/01/20 04:22:14;;;;;;;11.57;8.43;;;;;;;;;;5055959;28;20048;-67
2024/01/20 04:24:40;;;;;;;9.60;7.65;;;;;;;;;;5071673;28;20048;-67
2024/01/20 04:27:05;;;;;;;11.43;8.40;;;13.00;80.40;;;;;;5077027;28;20055;-67
2024/01/20 04:29:31;;;;;;;12.80;9.13;;;13.00;80.80;;;;;;5076647;28;20489;-67
2024/01/20 04:31:57;;;;;;;11.93;8.70;;;13.10;80.90;;;;;;5073939;28;20040;-67
2024/01/20 04:34:23;;;;;;;12.55;8.63;;;;;;;;;;5076369;28;20055;-67
2024/01/20 04:36:49;;;;;;;12.23;9.05;;;;;;;;;;5059474;28;20052;-67
2024/01/20 04:39:15;;;;;;;10.77;8.45;;;;;;;;;;5064508;28;20047;-67
2024/01/20 04:41:41;;;;;;;13.35;9.60;;;;;;;;;;5075829;28;20501;-67
2024/01/20 04:44:07;;;;;;;12.35;9.75;;;;;;;;;;5074499;28;20071;-67
2024/01/20 04:46:33;;;;;;;11.55;9.10;;;;;;;;;;5059609;28;20044;-67
2024/01/20 04:48:59;;;;;;;11.18;8.90;;;;;;;;;;5050833;28;20044;-67
2024/01/20 04:51:25;;;;;;;12.75;8.93;;;;;;;;;;5054363;28;20079;-67
2024/01/20 04:53:51;;;;;;;12.48;9.35;;;;;;;;;;5074116;28;20141;-67
2024/01/20 04:56:22;;;;;;;12.77;10.07;;;13.00;77.40;;;;;;5094261;28;20089;-67
2024/01/20 04:58:48;;;;;;;13.52;10.30;;;13.00;81.40;;;;;;5075999;28;20078;-67
2024/01/20 05:01:14;;;;;;;12.38;9.55;;;;;;;;;;5059272;28;20502;-67
2024/01/20 05:03:40;;;;;;;10.63;9.15;;;12.80;81.30;;;;;;5075140;28;20096;-67
2024/01/20 05:06:06;;;;;;;15.02;10.38;;;12.80;81.30;;;;;;5050236;28;20432;-67
2024/01/20 05:08:32;;;;;;;13.18;10.35;;;;;;;;;;5054398;28;20088;-67
2024/01/20 05:10:58;;;;;;;13.05;10.02;;;12.90;81.40;;;;;;5041154;28;20447;-67
2024/01/20 05:13:23;;;;;;;13.88;10.18;;;12.70;78.70;;;;;;5062601;28;20083;-67
2024/01/20 05:15:49;;;;;;;13.57;10.57;;;;;;;;;;5022058;28;20543;-67
2024/01/20 05:18:15;;;;;;;13.05;10.02;;;12.60;81.30;;;;;;5064048;28;20052;-67
2024/01/20 05:20:41;;;;;;;13.75;10.95;;;;;;;;;;5055177;28;20044;-67
2024/01/20 05:23:07;;;;;;;13.73;10.38;;;;;;;;;;5061843;28;20055;-67
2024/01/20 05:25:33;;;;;;;14.95;10.60;;;;;;;;;;5072111;28;20052;-68
2024/01/20 05:27:59;;;;;;;13.68;10.75;;;;;;;;;;5066162;28;20084;-67
2024/01/20 05:30:25;;;;;;;13.15;10.40;;;12.60;81.20;;;;;;5068747;28;20048;-67
2024/01/20 05:32:50;;;;;;;15.98;11.05;;;12.50;79.90;;;;;;5075133;28;20439;-67
2024/01/20 05:35:16;;;;;;;14.43;11.20;;;12.40;81.30;;;;;;5063939;28;20043;-67
2024/01/20 05:37:42;;;;;;;14.25;10.93;;;;;;;;;;5075162;28;20397;-68
2024/01/20 05:40:08;;;;;;;14.25;10.52;;;;;;;;;;5071892;28;20044;-68
2024/01/20 05:42:36;;;;;;;16.42;11.05;;;12.60;78.60;;;;;;5075450;28;20136;-68
2024/01/20 05:45:03;;;;;;;13.25;10.65;;;;;;;;;;5059224;28;20468;-68
2024/01/20 05:47:29;;;;;;;15.55;11.05;;;;;;;;;;5074757;28;20405;-68
2024/01/20 05:49:55;;;;;;;15.18;11.48;;;;;;;;;;5074689;28;20084;-67
2024/01/20 05:52:21;;;;;;;14.52;11.10;;;;;;;;;;5074694;28;20036;-67
2024/01/20 05:54:47;;;;;;;14.43;10.95;;;;;;;;;;5074917;28;20500;-67
2024/01/20 05:57:13;;;;;;;15.57;11.30;;;;;;;;;;5062073;28;20044;-66
2024/01/20 05:59:39;;;;;;;13.60;11.48;;;;;;;;;;5074905;28;20130;-67
2024/01/20 06:02:05;;;;;;;15.05;11.68;;;;;;;;;;5074167;28;20127;-67
2024/01/20 06:04:31;;;;;;;14.35;11.90;;;;;;;;;;5054615;28;20057;-67
2024/01/20 06:06:57;;;;;;;15.05;12.15;;;;;;;;;;5057611;28;20047;-67
2024/01/20 06:09:23;;;;;;;15.07;11.85;;;;;;;;;;5082214;28;20047;-67
2024/01/20 06:11:50;;;;;;;15.73;12.05;;;;;;;;;;5062970;28;20055;-67
2024/01/20 06:14:16;;;;;;;16.80;12.68;;;;;;;;;;5058464;28;20545;-67
2024/01/20 06:16:42;;;;;;;17.30;12.48;;;;;;;;;;5073564;28;20459;-66
2024/01/20 06:19:08;;;;;;;16.80;12.82;;;12.30;78.80;;;;;;5074173;28;20059;-68
2024/01/20 06:21:34;;;;;;;15.40;12.15;;;;;;;;;;5074203;28;20071;-67
2024/01/20 06:24:00;;;;;;;15.77;12.52;;;;;;;;;;5074235;28;20480;-67
2024/01/20 06:26:26;;;;;;;17.15;12.70;;;;;;;;;;5064743;28;20059;-67
2024/01/20 06:28:52;;;;;;;17.30;13.40;;;12.20;81.80;;;;;;5072489;28;20052;-67
2024/01/20 06:31:24;;;;;;;16.65;9.80;;;12.20;77.90;;;;;;5058577;28;20036;-67
2024/01/20 06:33:52;;;;;;;17.15;13.35;;;;;;;;;;5074583;28;20044;-67
2024/01/20 06:36:18;;;;;;;18.02;14.07;;;;;;;;;;5071903;28;20036;-66
2024/01/20 06:38:44;;;;;;;17.27;13.52;;;;;;;;;;5088942;28;20040;-67
2024/01/20 06:41:09;;;;;;;18.48;14.00;;;11.90;81.70;;;;;;5057785;28;20047;-67
2024/01/20 06:43:35;;;;;;;17.20;13.27;;;12.00;81.80;;;;;;5053999;28;20048;-67
2024/01/20 06:46:01;;;;;;;17.55;13.63;;;;;;;;;;5041864;28;20088;-66
2024/01/20 06:48:32;;;;;;;17.40;13.35;;;;;;;;;;5061768;28;20056;-67
2024/01/20 06:51:00;;;;;;;16.10;9.98;;;;;;;;;;5064210;28;20044;-67
2024/01/20 06:53:26;;;;;;;19.08;10.35;;;;;;;;;;5070735;28;20397;-66
2024/01/20 06:55:52;;;;;;;18.63;13.32;;;;;;;;;;5092430;28;20427;-67
2024/01/20 06:58:19;;;;;;;16.42;10.85;;;;;;;;;;5089103;28;20036;-68
2024/01/20 07:00:44;;;;;;;17.85;13.98;;;11.80;81.80;;;;;;5073016;28;20458;-67
2024/01/20 07:03:10;;;;;;;18.80;13.45;;;;;;;;;;5089961;28;20131;-68
2024/01/20 07:05:36;;;;;;;18.83;10.55;;;11.80;82.50;;;;;;5058308;28;20048;-68
2024/01/20 07:08:03;;;;;;;18.67;11.07;;;12.00;78.60;;;;;;5067830;28;20408;-67
2024/01/20 07:10:29;;;;;;;20.17;14.70;;;;;;;;;;5089901;28;20040;-67
2024/01/20 07:12:55;;;;;;;20.80;14.80;;;;;;;;;;5074248;28;20091;-68
2024/01/20 07:15:22;;;;;;;18.70;14.55;;;;;;;;;;5078160;28;20052;-68
2024/01/20 07:17:48;;;;;;;20.58;14.85;;;;;;;;;;5077940;28;20572;-68
2024/01/20 07:20:14;;;;;;;18.77;10.55;;;;;;;;;;5077213;28;20051;-67
2024/01/20 07:22:41;;;;;;;20.15;15.10;;;;;;;;;;5076677;28;20083;-68
2024/01/20 07:25:08;;;;;;;20.55;14.52;;;;;;;;;;5057697;28;20048;-68
2024/01/20 07:27:34;;;;;;;19.38;14.70;;;;;;;;;;5088326;28;20084;-68
2024/01/20 07:30:01;;;;;;;22.92;10.88;;;;;;;;;;5070990;28;20045;-68
2024/01/20 07:32:26;;;;;;;19.40;10.35;;;11.80;82.60;;;;;;5094017;28;20048;-69
2024/01/20 07:34:52;;;;;;;19.92;14.75;;;;;;;;;;5077953;28;20123;-68
2024/01/20 07:37:18;;;;;;;18.70;14.10;;;;;;;;;;5052236;28;20040;-69
2024/01/20 07:39:46;;;;;;;20.50;14.85;;;;;;;;;;5074618;28;20040;-69
2024/01/20 07:42:13;;;;;;;17.38;13.80;;;;;;;;;;5092741;28;20473;-68
2024/01/20 07:44:39;;;;;;;20.15;14.45;;;;;;;;;;5092656;28;20209;-68
2024/01/20 07:47:05;;;;;;;20.35;11.23;;;;;;;;;;5077930;28;20048;-68
2024/01/20 07:49:31;;;;;;;20.20;10.43;;;;;;;;;;5077412;28;20051;-68
2024/01/20 07:51:57;;;;;;;19.90;14.23;;;;;;;;;;5077648;28;20492;-68
2024/01/20 07:54:23;;;;;;;21.25;14.52;;;;;;;;;;5060105;28;20420;-68
2024/01/20 07:56:49;;;;;;;17.80;14.55;;;;;;;;;;5062066;28;20041;-66
2024/01/20 07:59:16;;;;;;;17.30;9.98;;;;;;;;;;5057658;28;20052;-65
2024/01/20 08:01:42;;;;;;;18.38;14.07;;;;;;;;;;5064048;28;20050;-66
2024/01/20 08:04:08;;;;;;;18.30;14.10;;;;;;;;;;5073499;28;20083;-66
2024/01/20 08:06:37;;;;;;;19.67;14.38;;;11.50;78.10;;;;;;5071963;28;20047;-66
2024/01/20 08:09:03;;;;;;;19.38;14.50;;;11.70;82.20;;;;;;5078882;28;20043;-66
2024/01/20 08:11:30;;;;;;;18.73;10.20;;;;;;;;;;5073626;28;20068;-66
2024/01/20 08:13:56;;;;;;;19.02;10.77;;;;;;;;;;5069408;28;20047;-66
2024/01/20 08:16:22;;;;;;;19.60;14.18;;;;;;;;;;5066719;28;20040;-65
2024/01/20 08:18:48;;;;;;;18.30;13.80;;;;;;;;;;5076891;28;20401;-66
2024/01/20 08:21:14;;;;;;;17.10;9.88;;;;;;;;;;5073259;28;20379;-66
2024/01/20 08:23:41;;;;;;;19.30;10.13;;;;;;;;;;5071333;28;20137;-66
2024/01/20 08:26:06;;;;;;;18.05;13.77;;;11.60;82.20;;;;;;5090372;28;20367;-66
2024/01/20 08:28:32;;;;;;;16.55;13.43;;;11.70;82.30;;;;;;5059824;28;20078;-65
2024/01/20 08:30:58;;;;;;;19.10;14.05;;;11.60;82.10;;;;;;5074934;28;20440;-65
2024/01/20 08:33:23;;;;;;;18.52;13.25;;;11.60;82.10;;;;;;5090307;28;20127;-65
2024/01/20 08:35:50;;;;;;;20.02;14.50;;;;;;;;;;5092434;28;20043;-64
2024/01/20 08:38:16;;;;;;;17.92;14.27;;;;;;;;;;5093516;28;20044;-64
2024/01/20 08:40:42;;;;;;;20.77;14.60;;;;;;;;;;5085650;28;20402;-65
2024/01/20 08:43:08;;;;;;;18.27;13.98;;;;;;;;;;5058121;28;20048;-64
2024/01/20 08:45:34;;;;;;;19.67;14.35;;;;;;;;;;5086739;28;20040;-64
2024/01/20 08:48:00;;;;;;;19.85;10.57;;;;;;;;;;5088733;28;20040;-64
2024/01/20 08:50:27;;;;;;;19.20;14.07;;;;;;;;;;5062134;28;20142;-64
2024/01/20 08:52:53;;;;;;;18.67;14.02;;;;;;;;;;5081008;28;20059;-64
2024/01/20 08:55:19;;;;;;;16.25;9.82;;;;;;;;;;5091260;28;20129;-63
2024/01/20 08:57:45;;;;;;;20.73;11.35;;;;;;;;;;5092604;28;20047;-64
2024/01/20 09:00:12;;;;;;;22.02;14.82;;;12.00;79.10;;;;;;5083851;28;20551;-64
2024/01/20 09:02:38;;;;;;;19.98;14.80;;;11.90;82.20;;;;;;5076143;28;20127;-65
2024/01/20 09:05:04;;;;;;;18.75;13.57;;;11.90;82.10;;;;;;5069388;28;20648;-65
2024/01/20 09:07:31;;;;;;;21.08;14.68;;;;;;;;;;5083680;28;20055;-66
2024/01/20 09:09:57;;;;;;;19.17;14.38;;;;;;;;;;5087052;28;20052;-65
2024/01/20 09:12:23;;;;;;;18.98;13.43;;;;;;;;;;5061645;28;20044;-66
2024/01/20 09:14:49;;;;;;;19.63;14.48;;;11.80;82.40;;;;;;5094094;28;20426;-67
2024/01/20 09:17:15;;;;;;;18.88;13.85;;;;;;;;;;5042702;28;20119;-67
2024/01/20 09:19:41;;;;;;;18.95;13.80;;;;;;;;;;5074118;28;20059;-67
2024/01/20 09:22:07;;;;;;;20.40;14.30;;;;;;;;;;5067756;28;20082;-67
2024/01/20 09:24:34;;;;;;;19.35;13.77;;;11.90;82.20;;;;;;5093687;28;20121;-68
2024/01/20 09:27:00;;;;;;;19.75;15.10;;;12.10;82.30;;;;;;5075485;28;20448;-67
2024/01/20 09:29:26;;;;;;;21.60;14.43;;;;;;;;;;5093890;28;20127;-67
2024/01/20 09:31:52;;;;;;;17.33;13.50;;;;;;;;;;5074784;28;20044;-67
2024/01/20 09:34:18;;;;;;;19.33;13.57;;;;;;;;;;5075556;28;20397;-67
2024/01/20 09:36:45;;;;;;;20.35;14.75;;;;;;;;;;5073918;28;20091;-67
2024/01/20 09:39:12;;;;;;;17.83;14.07;;;;;;;;;;5057585;28;20044;-67
2024/01/20 09:41:39;;;;;;;18.75;13.68;;;;;;;;;;5075079;28;20048;-67
2024/01/20 09:44:07;;;;;;;18.42;13.80;;;;;;;;;;5055426;28;20043;-67
2024/01/20 09:46:33;;;;;;;20.60;14.50;;;12.00;82.20;;;;;;5072150;28;20555;-67
2024/01/20 09:49:00;;;;;;;18.15;13.70;;;;;;;;;;5068448;28;20048;-66
2024/01/20 09:51:31;;;;;;;30.17;14.88;;;;;;;;;;5072288;28;20044;-68
2024/01/20 09:54:00;;;;;;;38.13;16.17;;;11.80;79.00;;;;;;5071140;28;20097;-70
2024/01/20 09:56:27;;;;;;;53.58;16.88;;;;;;;;;;5054101;28;20505;-68
2024/01/20 09:58:57;;;;;;;50.25;23.70;;;;;;;;;;5072047;28;20052;-68
2024/01/20 10:01:23;;;;;;;176.05;46.13;;;12.20;82.70;;;;;;5078926;28;20166;-67
2024/01/20 10:03:48;;;;;;;168.45;93.70;;;12.10;82.50;;;;;;5068796;28;20131;-65
2024/01/20 10:06:14;;;;;;;133.95;74.20;;;;;;;;;;5078024;28;20055;-66
2024/01/20 10:08:41;;;;;;;83.45;53.90;;;;;;;;;;5077410;28;20047;-66
2024/01/20 10:11:07;;;;;;;93.28;49.00;;;;;;;;;;5075683;28;20067;-67
2024/01/20 10:13:33;;;;;;;69.18;42.60;;;;;;;;;;5052443;28;20416;-66
2024/01/20 10:15:59;;;;;;;63.83;36.75;;;;;;;;;;5069564;28;20044;-68
2024/01/20 10:18:25;;;;;;;59.88;34.35;;;;;;;;;;5076788;28;20505;-65
2024/01/20 10:21:01;;;;;;;58.63;32.45;;;;;;;;;;5072391;28;20485;-66
2024/01/20 10:23:27;;;;;;;47.13;27.27;;;;;;;;;;5075591;28;20048;-66
2024/01/20 10:26:13;;;;;;;47.65;29.10;;;;;;;;;;5069729;28;20044;-66
2024/01/20 10:28:39;;;;;;;46.03;26.15;;;;;;;;;;5081754;28;20054;-66
2024/01/20 10:31:08;;;;;;;45.95;26.13;;;13.60;80.10;;;;;;5072132;28;20069;-66
2024/01/20 10:33:34;;;;;;;48.55;22.70;;;;;;;;;;5061138;28;20055;-67
2024/01/20 10:36:02;;;;;;;39.00;23.02;;;13.80;76.50;;;;;;5071300;28;20064;-66
2024/01/20 10:38:28;;;;;;;33.17;22.10;;;;;;;;;;5072226;28;20059;-66
2024/01/20 10:40:55;;;;;;;43.15;20.75;;;;;;;;;;5085994;28;20521;-66
2024/01/20 10:43:21;;;;;;;31.73;19.60;;;13.90;79.50;;;;;;5078993;28;20052;-66
2024/01/20 10:46:08;;;;;;;34.03;19.13;;;;;;;;;;5082211;28;20487;-66
2024/01/20 10:48:34;;;;;;;35.10;18.58;;;14.00;79.40;;;;;;5062641;28;20141;-65
2024/01/20 10:51:00;;;;;;;25.17;17.10;;;13.90;76.80;;;;;;5080881;28;20485;-65
2024/01/20 10:53:26;;;;;;;32.78;20.63;;;14.00;79.60;;;;;;5065058;28;20409;-65
2024/01/20 10:55:52;;;;;;;32.40;20.20;;;14.00;78.80;;;;;;5075658;28;20067;-66
2024/01/20 10:58:18;;;;;;;31.67;17.60;;;;;;;;;;5066714;28;20047;-66
2024/01/20 11:00:44;;;;;;;24.70;16.45;;;14.20;76.50;;;;;;5073247;28;20044;-66
2024/01/20 11:03:10;;;;;;;21.42;17.13;;;14.30;78.90;;;;;;5058967;28;20050;-65
2024/01/20 11:05:36;;;;;;;28.20;16.35;;;14.40;79.00;;;;;;5087894;28;20366;-66
2024/01/20 11:08:08;;;;;;;22.13;15.50;;;14.50;76.20;;;;;;5071727;28;20048;-66
2024/01/20 11:10:41;;;;;;;24.65;15.73;;;14.70;76.10;;;;;;5066991;28;20051;-65
2024/01/20 11:13:07;;;;;;;;;;;14.60;75.30;;;;;;5054802;28;20052;-66
2024/01/20 11:15:34;;;;;;;22.73;16.48;;;;;;;;;;5088827;28;19926;-65
2024/01/20 11:18:00;;;;;;;20.55;15.50;;;;;;;;;;5073988;28;20044;-66
2024/01/20 11:20:26;;;;;;;20.70;14.80;;;;;;;;;;5077966;28;20080;-65
2024/01/20 11:22:54;;;;;;;21.92;14.05;;;;;;;;;;5090618;28;20178;-65
2024/01/20 11:25:21;;;;;;;18.83;13.63;;;;;;;;;;5084707;28;20122;-65
2024/01/20 11:27:47;;;;;;;23.02;13.60;;;15.70;77.40;;;;;;5080178;28;20044;-68
2024/01/20 11:30:13;;;;;;;18.38;14.57;;;15.70;75.90;;;;;;5077990;28;20397;-66
2024/01/20 11:32:39;;;;;;;33.90;21.48;;;15.80;77.10;;;;;;5073459;28;20130;-66
2024/01/20 11:35:05;;;;;;;26.35;17.80;;;;;;;;;;5087627;28;20134;-65
2024/01/20 11:37:31;;;;;;;27.33;17.38;;;16.10;76.80;;;;;;5073848;28;20052;-65
2024/01/20 11:40:05;;;;;;;29.55;16.88;;;;;;;;;;5047775;28;20101;-66
2024/01/20 11:42:33;;;;;;;24.02;16.27;;;;;;;;;;5091910;28;20252;-65
2024/01/20 11:45:00;;;;;;;25.60;15.00;;;;;;;;;;5090809;28;20052;-65
2024/01/20 11:47:26;;;;;;;25.55;15.80;;;16.20;76.30;;;;;;5089829;28;20413;-65
2024/01/20 11:49:54;;;;;;;21.55;14.60;;;;;;;;;;5072117;28;20052;-66
2024/01/20 11:52:20;;;;;;;19.52;13.38;;;;;;;;;;5065875;28;20155;-65
2024/01/20 11:54:46;;;;;;;21.90;13.52;;;;;;;;;;5084289;28;20466;-65
2024/01/20 11:57:26;;;;;;;19.77;12.93;;;16.20;73.90;;;;;;5089936;28;20115;-65
2024/01/20 11:59:55;;;;;;;19.83;13.15;;;;;;;;;;5089917;28;20483;-65
2024/01/20 12:02:21;;;;;;;17.92;12.85;;;;;;;;;;5077324;28;20420;-65
2024/01/20 12:04:47;;;;;;;19.13;12.48;;;;;;;;;;5090398;28;20724;-65
2024/01/20 12:07:13;;;;;;;19.35;12.38;;;;;;;;;;5091085;28;20382;-65
2024/01/20 12:09:44;;;;;;;15.18;11.90;;;16.10;73.90;;;;;;5095188;28;20044;-65
2024/01/20 12:12:10;;;;;;;20.23;12.45;;;16.00;76.50;;;;;;5084968;28;20551;-65
2024/01/20 12:14:36;;;;;;;15.55;11.55;;;;;;;;;;5077321;28;20048;-65
2024/01/20 12:17:02;;;;;;;15.93;11.55;;;;;;;;;;5076352;28;20077;-65
2024/01/20 12:19:28;;;;;;;15.05;11.27;;;;;;;;;;5076535;28;20071;-65
2024/01/20 12:21:55;;;;;;;17.70;11.27;;;;;;;;;;5075666;28;20086;-65
2024/01/20 12:24:21;;;;;;;15.35;10.98;;;;;;;;;;5055906;28;20573;-65
2024/01/20 12:26:47;;;;;;;14.05;11.07;;;;;;;;;;5090199;28;20112;-66
2024/01/20 12:29:13;;;;;;;15.88;11.05;;;;;;;;;;5054556;28;20060;-65
2024/01/20 12:31:39;;;;;;;13.20;10.32;;;;;;;;;;5053175;28;20090;-66
2024/01/20 12:34:05;;;;;;;14.98;10.60;;;;;;;;;;5068029;28;20398;-65
2024/01/20 12:36:31;;;;;;;13.63;10.77;;;;;;;;;;5074336;28;20057;-65
2024/01/20 12:38:58;;;;;;;15.02;10.90;;;;;;;;;;5059427;28;20045;-65
2024/01/20 12:41:24;;;;;;;14.10;9.90;;;;;;;;;;5054622;28;20090;-66
2024/01/20 12:43:50;;;;;;;13.77;10.40;;;15.80;77.10;;;;;;5055875;28;20040;-66
2024/01/20 12:46:17;;;;;;;14.15;10.35;;;;;;;;;;5063999;28;20059;-66
2024/01/20 12:48:43;;;;;;;12.95;9.98;;;;;;;;;;5072913;28;20048;-65
2024/01/20 12:51:09;;;;;;;14.98;10.23;;;;;;;;;;5087999;28;20183;-67
2024/01/20 12:53:35;;;;;;;14.07;11.30;;;;;;;;;;5066343;28;20640;-66
2024/01/20 12:56:01;;;;;;;25.05;22.50;;;;;;;;;;5070076;28;20055;-66
2024/01/20 12:58:30;;;;;;;24.58;21.92;;;;;;;;;;5069375;28;20409;-66
2024/01/20 13:00:56;;;;;;;35.67;26.80;;;;;;;;;;5073531;28;20119;-66
2024/01/20 13:03:22;;;;;;;35.58;23.98;;;;;;;;;;5073535;28;20048;-66
2024/01/20 13:05:49;;;;;;;30.65;21.85;;;;;;;;;;5071858;28;20045;-66
2024/01/20 13:08:15;;;;;;;28.15;20.35;;;;;;;;;;5071482;28;20440;-66
2024/01/20 13:10:45;;;;;;;22.50;19.13;;;15.90;76.90;;;;;;5070961;28;20257;-66
2024/01/20 13:13:11;;;;;;;26.20;18.60;;;;;;;;;;5073410;28;20057;-65
2024/01/20 13:15:37;;;;;;;22.75;16.80;;;;;;;;;;5067969;28;20049;-65
2024/01/20 13:18:03;;;;;;;17.77;15.85;;;16.20;75.00;;;;;;5054916;28;20115;-66
2024/01/20 13:20:29;;;;;;;18.48;15.45;;;;;;;;;;5053578;28;20715;-65
2024/01/20 13:22:55;;;;;;;18.02;15.52;;;;;;;;;;5072066;28;20052;-65
2024/01/20 13:25:21;;;;;;;18.02;13.95;;;;;;;;;;5087469;28;20098;-65
2024/01/20 13:27:47;;;;;;;17.88;14.35;;;;;;;;;;5092914;28;20048;-65
2024/01/20 13:30:13;;;;;;;18.52;13.80;;;16.40;76.70;;;;;;5092332;28;20078;-65
2024/01/20 13:32:39;;;;;;;18.27;12.90;;;16.40;76.60;;;;;;5092217;28;20087;-65
2024/01/20 13:35:07;;;;;;;17.08;12.75;;;;;;;;;;5091655;28;20039;-65
2024/01/20 13:37:33;;;;;;;16.77;12.80;;;;;;;;;;5088212;28;20087;-66
2024/01/20 13:39:59;;;;;;;16.10;12.73;;;;;;;;;;5075208;28;20093;-65
2024/01/20 13:42:25;;;;;;;15.00;12.07;;;;;;;;;;5092489;28;20044;-66
2024/01/20 13:44:51;;;;;;;16.65;12.13;;;;;;;;;;5090360;28;20075;-66